Time;durP1;ratioP1;P1;durP2;ratioP2;P2;SDS_P1;SDS_P2;PMS_P1;PMS_P2;Temp;Humidity;BMP_temperature;BMP_pressure;BME280_temperature;BME280_humidity;BME280_pressure;Samples;Min_cycle;Max_cycle;Signal;HPM_P1;HPM_P2
2021/01/25 00:01:16;;;;;;;;;;;2.70;99.90;;;;;;5052252;28;19919;-67
2021/01/25 00:03:42;;;;;;;;;;;2.80;99.90;;;;;;5053094;28;19917;-67
2021/01/25 00:06:08;;;;;;;;;;;2.80;99.90;;;;;;5059322;28;19909;-67
2021/01/25 00:08:34;;;;;;;;;;;2.80;99.90;;;;;;5053629;28;20361;-67
2021/01/25 00:11:00;;;;;;;;;;;2.80;99.90;;;;;;5052317;28;19920;-67
2021/01/25 00:13:26;;;;;;;;;;;2.80;99.90;;;;;;5055429;28;19916;-67
2021/01/25 00:15:52;;;;;;;;;;;2.70;99.90;;;;;;5055353;28;19919;-67
2021/01/25 00:18:18;;;;;;;;;;;2.80;99.90;;;;;;5057496;28;19995;-67
2021/01/25 00:20:43;;;;;;;;;;;2.80;99.90;;;;;;5054938;28;19913;-67
2021/01/25 00:23:09;;;;;;;;;;;2.80;99.90;;;;;;5056507;28;19966;-67
2021/01/25 00:25:35;;;;;;;;;;;2.80;99.90;;;;;;5055181;28;19916;-67
2021/01/25 00:28:01;;;;;;;;;;;2.80;99.90;;;;;;5053978;28;19909;-67
2021/01/25 00:30:27;;;;;;;;;;;2.80;99.90;;;;;;5050719;28;19921;-67
2021/01/25 00:32:53;;;;;;;;;;;2.80;99.90;;;;;;5052216;28;19928;-67
2021/01/25 00:35:19;;;;;;;;;;;2.80;99.90;;;;;;5053704;28;20383;-67
2021/01/25 00:37:45;;;;;;;;;;;2.80;99.90;;;;;;5045160;28;19920;-67
2021/01/25 00:40:11;;;;;;;;;;;2.80;99.90;;;;;;5050274;28;19952;-67
2021/01/25 00:42:37;;;;;;;;;;;2.80;99.90;;;;;;5051667;28;19912;-67
2021/01/25 00:45:04;;;;;;;;;;;2.80;99.90;;;;;;5071620;28;19916;-67
2021/01/25 00:47:30;;;;;;;;;;;2.80;99.90;;;;;;5052154;28;19915;-67
2021/01/25 00:49:56;;;;;;;;;;;2.80;99.90;;;;;;5052142;28;19912;-68
2021/01/25 00:52:22;;;;;;;;;;;2.80;99.90;;;;;;5051250;28;19928;-67
2021/01/25 00:54:48;;;;;;;;;;;2.80;99.90;;;;;;5051551;28;19924;-68
2021/01/25 00:57:14;;;;;;;;;;;2.80;99.90;;;;;;5057227;28;19968;-67
2021/01/25 00:59:41;;;;;;;;;;;2.80;99.90;;;;;;5054553;28;19909;-67
2021/01/25 01:02:07;;;;;;;;;;;2.80;99.90;;;;;;5053557;28;20365;-67
2021/01/25 01:04:33;;;;;;;;;;;2.80;99.90;;;;;;5051981;28;19913;-67
2021/01/25 01:06:59;;;;;;;;;;;2.80;99.90;;;;;;5060451;28;19919;-67
2021/01/25 01:09:25;;;;;;;;;;;2.80;99.90;;;;;;5052531;28;19913;-67
2021/01/25 01:11:51;;;;;;;;;;;2.80;99.90;;;;;;5069835;28;19920;-67
2021/01/25 01:14:17;;;;;;;;;;;2.80;99.90;;;;;;5055564;28;19913;-67
2021/01/25 01:16:43;;;;;;;;;;;2.80;99.90;;;;;;5060383;28;19905;-67
2021/01/25 01:19:09;;;;;;;;;;;2.80;99.90;;;;;;5052459;28;20246;-67
2021/01/25 01:21:35;;;;;;;;;;;2.80;99.90;;;;;;5050859;28;20357;-67
2021/01/25 01:24:01;;;;;;;;;;;2.80;99.90;;;;;;5051517;28;19912;-66
2021/01/25 01:26:27;;;;;;;;;;;2.80;99.90;;;;;;5055986;28;19912;-66
2021/01/25 01:28:53;;;;;;;;;;;2.70;99.90;;;;;;5051325;28;19904;-66
2021/01/25 01:31:19;;;;;;;;;;;2.70;99.90;;;;;;5051817;28;19987;-66
2021/01/25 01:33:45;;;;;;;;;;;2.70;99.90;;;;;;5061057;28;19978;-66
2021/01/25 01:36:11;;;;;;;;;;;2.70;99.90;;;;;;5053889;28;19959;-66
2021/01/25 01:38:38;;;;;;;;;;;2.70;99.90;;;;;;5058660;28;19908;-66
2021/01/25 01:41:04;;;;;;;;;;;2.70;99.90;;;;;;5052334;28;19913;-66
2021/01/25 01:43:30;;;;;;;;;;;2.70;99.90;;;;;;5056823;28;19912;-66
2021/01/25 01:45:56;;;;;;;;;;;2.70;99.90;;;;;;5065361;28;19904;-66
2021/01/25 01:48:22;;;;;;;;;;;2.70;99.90;;;;;;5051449;28;19925;-66
2021/01/25 01:50:49;;;;;;;;;;;2.70;99.90;;;;;;5051506;28;19916;-66
2021/01/25 01:53:15;;;;;;;;;;;2.60;99.90;;;;;;5051627;28;20393;-66
2021/01/25 01:55:42;;;;;;;;;;;2.60;99.90;;;;;;5049854;28;20400;-66
2021/01/25 01:58:08;;;;;;;;;;;2.60;99.90;;;;;;5051391;28;19916;-66
2021/01/25 02:00:34;;;;;;;;;;;2.60;99.90;;;;;;5053741;28;19912;-66
2021/01/25 02:03:00;;;;;;;;;;;2.70;99.90;;;;;;5061433;28;20325;-66
2021/01/25 02:05:26;;;;;;;;;;;2.70;99.90;;;;;;5064010;28;19948;-66
2021/01/25 02:07:53;;;;;;;;;;;2.60;99.90;;;;;;5057775;28;19920;-66
2021/01/25 02:10:19;;;;;;;;;;;2.60;99.90;;;;;;5052119;28;19908;-66
2021/01/25 02:12:46;;;;;;;;;;;2.70;99.90;;;;;;5035379;28;19927;-67
2021/01/25 02:15:12;;;;;;;;;;;2.70;99.90;;;;;;5055862;28;19905;-66
2021/01/25 02:17:38;;;;;;;;;;;2.60;99.90;;;;;;5052808;28;19909;-66
2021/01/25 02:20:05;;;;;;;;;;;2.60;99.90;;;;;;5050032;28;19927;-66
2021/01/25 02:22:37;;;;;;;;;;;2.60;99.90;;;;;;5049886;28;19916;-66
2021/01/25 02:25:03;;;;;;;;;;;2.60;99.90;;;;;;5049931;28;20365;-66
2021/01/25 02:27:33;;;;;;;;;;;2.60;99.90;;;;;;5052114;28;19905;-66
2021/01/25 02:29:59;;;;;;;;;;;2.60;99.90;;;;;;5051393;28;19924;-66
2021/01/25 02:32:25;;;;;;;;;;;2.60;99.90;;;;;;5051634;28;19912;-66
2021/01/25 02:34:52;;;;;;;;;;;2.50;99.90;;;;;;5054999;28;19905;-66
2021/01/25 02:37:18;;;;;;;;;;;2.60;99.90;;;;;;5059427;28;19909;-66
2021/01/25 02:39:44;;;;;;;;;;;2.60;99.90;;;;;;5066141;28;19912;-66
2021/01/25 02:42:10;;;;;;;;;;;2.60;99.90;;;;;;5063486;28;20380;-66
2021/01/25 02:44:36;;;;;;;;;;;2.60;99.90;;;;;;5067856;28;19909;-66
2021/01/25 02:47:02;;;;;;;;;;;2.60;99.90;;;;;;5074360;28;19914;-67
2021/01/25 02:49:28;;;;;;;;;;;2.60;99.90;;;;;;5066475;28;19904;-66
2021/01/25 02:51:54;;;;;;;;;;;2.60;99.90;;;;;;5062899;28;19912;-66
2021/01/25 02:54:20;;;;;;;;;;;2.60;99.90;;;;;;5067038;28;19939;-66
2021/01/25 02:56:46;;;;;;;;;;;2.70;99.90;;;;;;5065707;28;20285;-66
2021/01/25 02:59:12;;;;;;;;;;;2.70;99.90;;;;;;5055369;28;19909;-66
2021/01/25 03:01:38;;;;;;;;;;;2.70;99.90;;;;;;5053491;28;19912;-66
2021/01/25 03:04:04;;;;;;;;;;;2.70;99.90;;;;;;5053415;28;19908;-66
2021/01/25 03:06:30;;;;;;;;;;;2.60;99.90;;;;;;5052989;28;19913;-66
2021/01/25 03:08:56;;;;;;;;;;;2.60;99.90;;;;;;5034769;28;20008;-66
2021/01/25 03:11:22;;;;;;;;;;;2.60;99.90;;;;;;5053177;28;19909;-66
2021/01/25 03:13:48;;;;;;;;;;;2.60;99.90;;;;;;5063735;28;19912;-66
2021/01/25 03:16:16;;;;;;;;;;;2.60;99.90;;;;;;5070923;28;19913;-66
2021/01/25 03:18:42;;;;;;;;;;;2.60;99.90;;;;;;5068929;28;19904;-66
2021/01/25 03:21:08;;;;;;;;;;;2.60;99.90;;;;;;5070935;28;20285;-66
2021/01/25 03:23:34;;;;;;;;;;;2.60;99.90;;;;;;5057732;28;19905;-66
2021/01/25 03:26:00;;;;;;;;;;;2.50;99.90;;;;;;5060413;28;19913;-66
2021/01/25 03:28:26;;;;;;;;;;;2.60;99.90;;;;;;5052196;28;19920;-66
2021/01/25 03:30:52;;;;;;;;;;;2.60;99.90;;;;;;5053724;28;19920;-66
2021/01/25 03:33:18;;;;;;;;;;;2.60;99.90;;;;;;5054099;28;19917;-66
2021/01/25 03:35:44;;;;;;;;;;;2.50;99.90;;;;;;5054226;28;19909;-66
2021/01/25 03:38:10;;;;;;;;;;;2.60;99.90;;;;;;5053800;28;19931;-66
2021/01/25 03:40:36;;;;;;;;;;;2.60;99.90;;;;;;5054062;28;20002;-66
2021/01/25 03:43:02;;;;;;;;;;;2.60;99.90;;;;;;5053551;28;19917;-66
2021/01/25 03:45:28;;;;;;;;;;;2.60;99.90;;;;;;5057792;28;19920;-66
2021/01/25 03:47:54;;;;;;;;;;;2.60;99.90;;;;;;5062621;28;19916;-66
2021/01/25 03:50:20;;;;;;;;;;;2.60;99.90;;;;;;5066589;28;20007;-66
2021/01/25 03:52:46;;;;;;;;;;;2.60;99.90;;;;;;5065517;28;19924;-66
2021/01/25 03:55:12;;;;;;;;;;;2.60;99.90;;;;;;5068087;28;19921;-66
2021/01/25 03:57:38;;;;;;;;;;;2.60;99.90;;;;;;5060902;28;19924;-66
2021/01/25 04:00:05;;;;;;;;;;;2.60;99.90;;;;;;5065877;28;19912;-66
2021/01/25 04:02:31;;;;;;;;;;;2.60;99.90;;;;;;5059921;28;19916;-66
2021/01/25 04:04:57;;;;;;;;;;;2.60;99.90;;;;;;5058351;28;19909;-66
2021/01/25 04:07:23;;;;;;;;;;;2.60;99.90;;;;;;5061351;28;19915;-66
2021/01/25 04:09:49;;;;;;;;;;;2.60;99.90;;;;;;5062153;28;19931;-66
2021/01/25 04:12:15;;;;;;;;;;;2.60;99.90;;;;;;5060077;28;19921;-67
2021/01/25 04:14:41;;;;;;;;;;;2.60;99.90;;;;;;5071484;28;19909;-66
2021/01/25 04:17:07;;;;;;;;;;;2.60;99.90;;;;;;5064593;28;19913;-66
2021/01/25 04:19:33;;;;;;;;;;;2.60;99.90;;;;;;5056065;28;19909;-66
2021/01/25 04:21:59;;;;;;;;;;;2.60;99.90;;;;;;5054205;28;19938;-66
2021/01/25 04:24:25;;;;;;;;;;;2.60;99.90;;;;;;5061079;28;19919;-66
2021/01/25 04:26:51;;;;;;;;;;;2.70;99.90;;;;;;5053817;28;19912;-66
2021/01/25 04:29:17;;;;;;;;;;;2.60;99.90;;;;;;5063711;28;19926;-66
2021/01/25 04:31:43;;;;;;;;;;;2.70;99.90;;;;;;5064030;28;19955;-66
2021/01/25 04:34:08;;;;;;;;;;;2.70;99.90;;;;;;5052069;28;19934;-66
2021/01/25 04:36:34;;;;;;;;;;;2.70;99.90;;;;;;5046885;28;20325;-66
2021/01/25 04:39:00;;;;;;;;;;;2.70;99.90;;;;;;5050799;28;20361;-66
2021/01/25 04:41:26;;;;;;;;;;;2.70;99.90;;;;;;5052343;28;19962;-66
2021/01/25 04:43:53;;;;;;;;;;;2.70;99.90;;;;;;5062105;28;20369;-66
2021/01/25 04:46:20;;;;;;;;;;;2.70;99.90;;;;;;5052423;28;19915;-67
2021/01/25 04:48:46;;;;;;;;;;;2.70;99.90;;;;;;5050529;28;20362;-66
2021/01/25 04:51:12;;;;;;;;;;;2.70;99.90;;;;;;5053159;28;19962;-66
2021/01/25 04:53:38;;;;;;;;;;;2.60;99.90;;;;;;5054042;28;19916;-66
2021/01/25 04:56:04;;;;;;;;;;;2.70;99.90;;;;;;5051712;28;19923;-66
2021/01/25 04:58:30;;;;;;;;;;;2.70;99.90;;;;;;5051466;28;19904;-66
2021/01/25 05:00:56;;;;;;;;;;;2.70;99.90;;;;;;5054451;28;19908;-66
2021/01/25 05:03:22;;;;;;;;;;;2.70;99.90;;;;;;5068225;28;20319;-66
2021/01/25 05:05:48;;;;;;;;;;;2.70;99.90;;;;;;5066835;28;19999;-66
2021/01/25 05:08:14;;;;;;;;;;;2.70;99.90;;;;;;5066995;28;19908;-66
2021/01/25 05:10:40;;;;;;;;;;;2.60;99.90;;;;;;5052168;28;19913;-66
2021/01/25 05:13:06;;;;;;;;;;;2.70;99.90;;;;;;5051618;28;19923;-67
2021/01/25 05:15:32;;;;;;;;;;;2.70;99.90;;;;;;5056806;28;19911;-67
2021/01/25 05:18:19;;;;;;;;;;;2.60;99.90;;;;;;5055370;28;19904;-66
2021/01/25 05:20:45;;;;;;;;;;;2.70;99.90;;;;;;5058832;28;20380;-74
2021/01/25 05:23:12;;;;;;;;;;;2.70;99.90;;;;;;5071048;28;19905;-67
2021/01/25 05:25:38;;;;;;;;;;;2.70;99.90;;;;;;5070602;28;19913;-67
2021/01/25 05:28:05;;;;;;;;;;;2.70;99.90;;;;;;5055078;28;19916;-67
2021/01/25 05:30:32;;;;;;;;;;;2.60;99.90;;;;;;5052037;28;19921;-67
2021/01/25 05:32:58;;;;;;;;;;;2.60;99.90;;;;;;5051708;28;20316;-66
2021/01/25 05:35:28;;;;;;;;;;;2.60;99.90;;;;;;5060618;28;19940;-66
2021/01/25 05:37:58;;;;;;;;;;;2.60;99.90;;;;;;5051986;28;19905;-66
2021/01/25 05:40:25;;;;;;;;;;;2.60;99.90;;;;;;5061499;28;19905;-67
2021/01/25 05:42:51;;;;;;;;;;;2.60;99.90;;;;;;5050517;28;19912;-67
2021/01/25 05:45:17;;;;;;;;;;;2.60;99.90;;;;;;5058461;28;19912;-67
2021/01/25 05:47:44;;;;;;;;;;;2.60;99.90;;;;;;5067392;28;20281;-67
2021/01/25 05:50:22;;;;;;;;;;;2.60;99.90;;;;;;5069449;28;19908;-67
2021/01/25 05:52:48;;;;;;;;;;;2.60;99.90;;;;;;5058002;28;19912;-67
2021/01/25 05:55:14;;;;;;;;;;;2.60;99.90;;;;;;5050466;28;19920;-67
2021/01/25 05:57:40;;;;;;;;;;;2.60;99.90;;;;;;5051876;28;19919;-67
2021/01/25 06:00:07;;;;;;;;;;;2.60;99.90;;;;;;5051634;28;19967;-67
2021/01/25 06:02:33;;;;;;;;;;;2.60;99.90;;;;;;5050496;28;20307;-67
2021/01/25 06:04:59;;;;;;;;;;;2.60;99.90;;;;;;5050000;28;19904;-67
2021/01/25 06:07:25;;;;;;;;;;;2.60;99.90;;;;;;5051163;28;19927;-67
2021/01/25 06:09:52;;;;;;;;;;;2.60;99.90;;;;;;5055500;28;20336;-67
2021/01/25 06:12:22;;;;;;;;;;;2.60;99.90;;;;;;5055024;28;19905;-67
2021/01/25 06:14:50;;;;;;;;;;;2.50;99.90;;;;;;5054691;28;19909;-67
2021/01/25 06:17:16;;;;;;;;;;;2.50;99.90;;;;;;5053801;28;19936;-67
2021/01/25 06:19:42;;;;;;;;;;;2.50;99.90;;;;;;5054904;28;20358;-67
2021/01/25 06:22:09;;;;;;;;;;;2.50;99.90;;;;;;5060110;28;19909;-67
2021/01/25 06:24:35;;;;;;;;;;;2.50;99.90;;;;;;5062580;28;19920;-68
2021/01/25 06:27:02;;;;;;;;;;;2.50;99.90;;;;;;5063115;28;19970;-67
2021/01/25 06:29:29;;;;;;;;;;;2.50;99.90;;;;;;5061908;28;19928;-67
2021/01/25 06:31:55;;;;;;;;;;;2.50;99.90;;;;;;5057639;28;19916;-67
2021/01/25 06:34:21;;;;;;;;;;;2.50;99.90;;;;;;5061916;28;19916;-67
2021/01/25 06:36:48;;;;;;;;;;;2.50;99.90;;;;;;5066060;28;19916;-67
2021/01/25 06:39:19;;;;;;;;;;;2.40;99.90;;;;;;5059031;28;19931;-67
2021/01/25 06:41:45;;;;;;;;;;;2.40;99.90;;;;;;5064378;28;19924;-67
2021/01/25 06:44:11;;;;;;;;;;;2.40;99.90;;;;;;5058023;28;20328;-67
2021/01/25 06:46:38;;;;;;;;;;;2.40;99.90;;;;;;5062253;28;19912;-67
2021/01/25 06:49:04;;;;;;;;;;;2.40;99.90;;;;;;5054381;28;19916;-68
2021/01/25 06:51:30;;;;;;;;;;;2.40;99.90;;;;;;5053091;28;20377;-68
2021/01/25 06:53:57;;;;;;;;;;;2.40;99.90;;;;;;5071967;28;19928;-68
2021/01/25 06:56:23;;;;;;;;;;;2.40;99.90;;;;;;5065419;28;19964;-68
2021/01/25 06:58:49;;;;;;;;;;;2.50;99.90;;;;;;5065927;28;19912;-67
2021/01/25 07:01:19;;;;;;;;;;;2.40;99.90;;;;;;5064671;28;19971;-67
2021/01/25 07:03:57;;;;;;;;;;;2.40;99.90;;;;;;5057698;28;19932;-67
2021/01/25 07:06:38;;;;;;;;;;;2.50;99.90;;;;;;5050361;28;20008;-67
2021/01/25 07:09:05;;;;;;;;;;;2.40;99.90;;;;;;5060236;28;20405;-67
2021/01/25 07:11:31;;;;;;;;;;;2.50;99.90;;;;;;5057279;28;19912;-67
2021/01/25 07:13:57;;;;;;;;;;;2.50;99.90;;;;;;5056286;28;19924;-67
2021/01/25 07:16:23;;;;;;;;;;;2.50;99.90;;;;;;5063045;28;19919;-68
2021/01/25 07:18:50;;;;;;;;;;;2.50;99.90;;;;;;5064358;28;19919;-68
2021/01/25 07:21:17;;;;;;;;;;;2.50;99.90;;;;;;5051533;28;19912;-68
2021/01/25 07:23:43;;;;;;;;;;;2.40;99.90;;;;;;5054526;28;19940;-68
2021/01/25 07:26:13;;;;;;;;;;;2.50;99.90;;;;;;5067259;28;20303;-68
2021/01/25 07:28:39;;;;;;;;;;;2.40;99.90;;;;;;5062592;28;19931;-66
2021/01/25 07:31:05;;;;;;;;;;;2.40;99.90;;;;;;5054828;28;19916;-68
2021/01/25 07:33:31;;;;;;;;;;;2.40;99.90;;;;;;5052792;28;20285;-68
2021/01/25 07:35:58;;;;;;;;;;;2.40;99.90;;;;;;5056832;28;19920;-68
2021/01/25 07:38:27;;;;;;;;;;;2.40;99.90;;;;;;5059993;28;19932;-68
2021/01/25 07:40:57;;;;;;;;;;;2.30;99.90;;;;;;5055939;28;20362;-68
2021/01/25 07:43:24;;;;;;;;;;;2.30;99.90;;;;;;5058189;28;19923;-68
2021/01/25 07:45:51;;;;;;;;;;;2.30;99.90;;;;;;5053719;28;19905;-68
2021/01/25 07:48:17;;;;;;;;;;;2.20;99.90;;;;;;5051013;28;19913;-68
2021/01/25 07:50:57;;;;;;;;;;;2.20;99.90;;;;;;5060960;28;19917;-68
2021/01/25 07:53:23;;;;;;;;;;;2.20;99.90;;;;;;5057529;28;19921;-68
2021/01/25 07:55:49;;;;;;;;;;;2.20;99.90;;;;;;5062420;28;19931;-68
2021/01/25 07:58:15;;;;;;;;;;;2.20;99.90;;;;;;5057109;28;20673;-68
2021/01/25 08:00:41;;;;;;;;;;;2.20;99.90;;;;;;5071012;28;19911;-68
2021/01/25 08:03:09;;;;;;;;;;;2.20;99.90;;;;;;5057071;28;19920;-68
2021/01/25 08:05:35;;;;;;;;;;;2.30;99.90;;;;;;5055490;28;20297;-68
2021/01/25 08:08:04;;;;;;;;;;;2.20;99.90;;;;;;5067932;28;19936;-68
2021/01/25 08:10:31;;;;;;;;;;;2.20;99.90;;;;;;5051501;28;19916;-68
2021/01/25 08:12:59;;;;;;;;;;;2.20;99.90;;;;;;5058502;28;19920;-66
2021/01/25 08:15:27;;;;;;;;;;;2.20;99.90;;;;;;5061072;28;19909;-66
2021/01/25 08:17:57;;;;;;;;;;;2.30;99.90;;;;;;5063478;28;19915;-66
2021/01/25 08:20:23;;;;;;;;;;;2.20;99.90;;;;;;5069830;28;20349;-67
2021/01/25 08:22:57;;;;;;;;;;;2.20;99.90;;;;;;5059673;28;19913;-71
2021/01/25 08:25:24;;;;;;;;;;;2.20;99.90;;;;;;5056187;28;20272;-67
2021/01/25 08:28:02;;;;;;;;;;;2.20;99.90;;;;;;5057381;28;19913;-67
2021/01/25 08:30:38;;;;;;;;;;;2.20;99.90;;;;;;5056219;28;19917;-67
2021/01/25 08:33:05;;;;;;;;;;;2.20;99.90;;;;;;5051647;28;20349;-67
2021/01/25 08:35:32;;;;;;;;;;;2.10;99.90;;;;;;5053485;28;19908;-67
2021/01/25 08:38:08;;;;;;;;;;;2.10;99.90;;;;;;5060701;28;19905;-67
2021/01/25 08:40:35;;;;;;;;;;;2.10;99.90;;;;;;5057973;28;19909;-67
2021/01/25 08:43:01;;;;;;;;;;;2.20;99.90;;;;;;5058774;28;19916;-67
2021/01/25 08:45:27;;;;;;;;;;;2.10;99.90;;;;;;5059215;28;19923;-67
2021/01/25 08:48:03;;;;;;;;;;;2.20;99.90;;;;;;5050593;28;19916;-67
2021/01/25 08:50:29;;;;;;;;;;;2.20;99.90;;;;;;5065173;28;19917;-67
2021/01/25 08:52:58;;;;;;;;;;;2.10;99.90;;;;;;5070734;28;20351;-67
2021/01/25 08:55:27;;;;;;;;;;;2.20;99.90;;;;;;5061387;28;20250;-67
2021/01/25 08:57:56;;;;;;;;;;;2.20;99.90;;;;;;5058600;28;19913;-67
2021/01/25 09:00:27;;;;;;;;;;;2.20;99.90;;;;;;5059433;28;19908;-67
2021/01/25 09:03:00;;;;;;;;;;;2.20;99.90;;;;;;5059558;28;19908;-67
2021/01/25 09:05:26;;;;;;;;;;;2.30;99.90;;;;;;5062758;28;19912;-67
2021/01/25 09:07:52;;;;;;;;;;;2.30;99.90;;;;;;5051950;28;19923;-67
2021/01/25 09:10:18;;;;;;;;;;;2.30;99.90;;;;;;5056010;28;19983;-67
2021/01/25 09:12:44;;;;;;;;;;;2.30;99.90;;;;;;5072218;28;19912;-67
2021/01/25 09:15:10;;;;;;;;;;;2.40;99.90;;;;;;5069474;28;19958;-67
2021/01/25 09:17:36;;;;;;;;;;;2.40;99.90;;;;;;5060379;28;19913;-67
2021/01/25 09:20:03;;;;;;;;;;;2.40;99.90;;;;;;5050408;28;20278;-67
2021/01/25 09:22:29;;;;;;;;;;;2.40;99.90;;;;;;5047661;28;19908;-67
2021/01/25 09:24:55;;;;;;;;;;;2.40;99.90;;;;;;5052481;28;19917;-67
2021/01/25 09:27:21;;;;;;;;;;;2.40;99.90;;;;;;5050810;28;19912;-67
2021/01/25 09:29:48;;;;;;;;;;;2.50;99.90;;;;;;5038424;28;19928;-67
2021/01/25 09:32:13;;;;;;;;;;;2.50;99.90;;;;;;5058368;28;20297;-67
2021/01/25 09:34:39;;;;;;;;;;;2.60;99.90;;;;;;5066997;28;19917;-67
2021/01/25 09:37:07;;;;;;;;;;;2.60;99.90;;;;;;5052398;28;19915;-68
2021/01/25 09:39:33;;;;;;;;;;;2.60;99.90;;;;;;5050694;28;19932;-67
2021/01/25 09:42:00;;;;;;;;;;;2.60;99.90;;;;;;5052654;28;19909;-68
2021/01/25 09:44:26;;;;;;;;;;;2.60;99.90;;;;;;5060716;28;19912;-67
2021/01/25 09:46:52;;;;;;;;;;;2.70;99.90;;;;;;5074967;28;19915;-67
2021/01/25 09:49:18;;;;;;;;;;;2.80;99.90;;;;;;5055413;28;19932;-68
2021/01/25 09:51:46;;;;;;;;;;;2.80;99.90;;;;;;5055847;28;19908;-69
2021/01/25 09:54:12;;;;;;;;;;;2.90;99.90;;;;;;5063355;28;20317;-66
2021/01/25 09:56:38;;;;;;;;;;;2.90;99.90;;;;;;5061420;28;19928;-67
2021/01/25 09:59:04;;;;;;;;;;;2.90;99.90;;;;;;5051877;28;19912;-66
2021/01/25 10:01:30;;;;;;;;;;;2.90;99.90;;;;;;5054250;28;19913;-66
2021/01/25 10:03:57;;;;;;;;;;;2.90;99.90;;;;;;5060206;28;20003;-66
2021/01/25 10:06:23;;;;;;;;;;;3.00;99.90;;;;;;5055465;28;19913;-66
2021/01/25 10:08:49;;;;;;;;;;;3.00;99.90;;;;;;5057404;28;19905;-66
2021/01/25 10:11:15;;;;;;;;;;;3.10;99.90;;;;;;5054170;28;19920;-66
2021/01/25 10:13:41;;;;;;;;;;;3.10;99.90;;;;;;5055294;28;19909;-66
2021/01/25 10:16:07;;;;;;;;;;;3.00;99.90;;;;;;5062547;28;19916;-66
2021/01/25 10:18:33;;;;;;;;;;;3.00;99.90;;;;;;5056212;28;19909;-66
2021/01/25 10:20:59;;;;;;;;;;;3.00;99.90;;;;;;5054705;28;19958;-66
2021/01/25 10:23:25;;;;;;;;;;;3.00;99.90;;;;;;5055891;28;20022;-66
2021/01/25 10:25:52;;;;;;;;;;;3.00;99.90;;;;;;5056677;28;20369;-66
2021/01/25 10:28:20;;;;;;;;;;;3.00;99.90;;;;;;5053184;28;19919;-66
2021/01/25 10:30:47;;;;;;;;;;;3.00;99.90;;;;;;5054849;28;20356;-66
2021/01/25 10:33:13;;;;;;;;;;;3.10;99.90;;;;;;5052470;28;19913;-66
2021/01/25 10:35:39;;;;;;;;;;;3.20;99.90;;;;;;5055783;28;19916;-68
2021/01/25 10:38:05;;;;;;;;;;;3.20;99.90;;;;;;5054496;28;19909;-66
2021/01/25 10:40:31;;;;;;;;;;;3.20;99.90;;;;;;5058911;28;19908;-66
2021/01/25 10:42:57;;;;;;;;;;;3.20;99.90;;;;;;5062708;28;19908;-66
2021/01/25 10:45:23;;;;;;;;;;;3.20;99.90;;;;;;5058176;28;20400;-66
2021/01/25 10:47:49;;;;;;;;;;;3.20;99.90;;;;;;5054572;28;19920;-66
2021/01/25 10:50:15;;;;;;;;;;;3.10;99.90;;;;;;5071292;28;19931;-66
2021/01/25 10:52:41;;;;;;;;;;;3.10;99.90;;;;;;5053403;28;19904;-66
2021/01/25 10:55:07;;;;;;;;;;;3.20;99.90;;;;;;5053883;28;19920;-67
2021/01/25 10:57:34;;;;;;;;;;;3.20;99.90;;;;;;5056666;28;19920;-66
2021/01/25 11:00:04;;;;;;;;;;;3.20;99.90;;;;;;5060457;28;19920;-68
2021/01/25 11:02:29;;;;;;;;;;;3.30;99.90;;;;;;5057494;28;20313;-68
2021/01/25 11:04:55;;;;;;;;;;;3.30;99.90;;;;;;5056774;28;19912;-68
2021/01/25 11:07:21;;;;;;;;;;;3.30;99.90;;;;;;5053692;28;19920;-68
2021/01/25 11:09:47;;;;;;;;;;;3.40;99.90;;;;;;5052143;28;19959;-68
2021/01/25 11:12:13;;;;;;;;;;;3.40;99.90;;;;;;5052187;28;19913;-68
2021/01/25 11:14:39;;;;;;;;;;;3.50;99.90;;;;;;5061322;28;19920;-68
2021/01/25 11:17:06;;;;;;;;;;;3.50;99.90;;;;;;5059075;28;19916;-68
2021/01/25 11:19:31;;;;;;;;;;;3.50;99.90;;;;;;5052570;28;19912;-68
2021/01/25 11:21:57;;;;;;;;;;;3.50;99.90;;;;;;5064372;28;19912;-68
2021/01/25 11:24:23;;;;;;;;;;;3.60;99.90;;;;;;5061164;28;19912;-68
2021/01/25 11:26:52;;;;;;;;;;;3.50;99.90;;;;;;5055647;28;20285;-68
2021/01/25 11:29:19;;;;;;;;;;;3.50;99.90;;;;;;5053537;28;19924;-68
2021/01/25 11:31:44;;;;;;;;;;;3.40;99.90;;;;;;5056976;28;20266;-68
2021/01/25 11:34:11;;;;;;;;;;;3.30;99.90;;;;;;5052072;28;19928;-68
2021/01/25 11:36:37;;;;;;;;;;;3.30;99.90;;;;;;5064432;28;20297;-68
2021/01/25 11:39:03;;;;;;;;;;;3.40;99.90;;;;;;5055224;28;19966;-68
2021/01/25 11:41:29;;;;;;;;;;;3.40;99.90;;;;;;5063922;28;19905;-68
2021/01/25 11:43:55;;;;;;;;;;;3.40;99.90;;;;;;5058519;28;19909;-66
2021/01/25 11:46:21;;;;;;;;;;;3.40;99.90;;;;;;5060746;28;19909;-67
2021/01/25 11:48:47;;;;;;;;;;;3.40;99.90;;;;;;5054602;28;19920;-67
2021/01/25 11:51:13;;;;;;;;;;;3.40;99.90;;;;;;5052397;28;20289;-67
2021/01/25 11:53:39;;;;;;;;;;;3.40;99.90;;;;;;5050616;28;19928;-67
2021/01/25 11:56:05;;;;;;;;;;;3.40;99.90;;;;;;5053612;28;20419;-67
2021/01/25 11:58:31;;;;;;;;;;;3.40;99.90;;;;;;5052429;28;20301;-67
2021/01/25 12:00:57;;;;;;;;;;;3.40;99.90;;;;;;5053380;28;20004;-67
2021/01/25 12:03:22;;;;;;;;;;;3.40;99.90;;;;;;5052006;28;19947;-67
2021/01/25 12:05:49;;;;;;;;;;;3.40;99.90;;;;;;5052053;28;20392;-67
2021/01/25 12:08:14;;;;;;;;;;;3.40;99.90;;;;;;5051608;28;19960;-67
2021/01/25 12:10:43;;;;;;;;;;;3.40;99.90;;;;;;5051670;28;19978;-68
2021/01/25 12:13:09;;;;;;;;;;;3.40;99.90;;;;;;5051610;28;19916;-67
2021/01/25 12:15:35;;;;;;;;;;;3.50;99.90;;;;;;5051617;28;20007;-67
2021/01/25 12:18:01;;;;;;;;;;;3.40;99.90;;;;;;5051779;28;19912;-67
2021/01/25 12:20:27;;;;;;;;;;;3.40;99.90;;;;;;5050874;28;19913;-67
2021/01/25 12:22:53;;;;;;;;;;;3.40;99.90;;;;;;5050529;28;19904;-67
2021/01/25 12:25:19;;;;;;;;;;;3.40;99.90;;;;;;5051242;28;19970;-67
2021/01/25 12:27:53;;;;;;;;;;;3.40;99.90;;;;;;5125057;27;19919;-68
2021/01/25 12:30:19;;;;;;;;;;;3.40;99.90;;;;;;5126590;28;19916;-69
2021/01/25 12:32:45;;;;;;;;;;;3.40;99.90;;;;;;5131248;28;19919;-69
2021/01/25 12:35:11;;;;;;;;;;;3.40;99.90;;;;;;5130847;28;19908;-68
2021/01/25 12:37:37;;;;;;;;;;;3.40;99.90;;;;;;5125701;28;19912;-68
2021/01/25 12:40:04;;;;;;;;;;;3.40;99.90;;;;;;5120021;28;20262;-68
2021/01/25 12:42:29;;;;;;;;;;;3.40;99.90;;;;;;5130095;27;19908;-68
2021/01/25 12:44:55;;;;;;;;;;;3.40;99.90;;;;;;5130415;28;19923;-68
2021/01/25 12:47:21;;;;;;;;;;;3.30;99.90;;;;;;5127552;28;19920;-68
2021/01/25 12:49:47;;;;;;;;;;;3.30;99.90;;;;;;5117483;28;20342;-68
2021/01/25 12:52:13;;;;;;;;;;;3.20;99.90;;;;;;5107124;28;19939;-68
2021/01/25 12:54:39;;;;;;;;;;;3.20;99.90;;;;;;5105248;28;20407;-68
2021/01/25 12:57:05;;;;;;;;;;;3.10;99.90;;;;;;5099091;28;20021;-68
2021/01/25 12:59:31;;;;;;;;;;;3.20;99.90;;;;;;5109661;28;19919;-68
2021/01/25 13:01:57;;;;;;;;;;;3.20;99.90;;;;;;5105864;28;19912;-68
2021/01/25 13:04:23;;;;;;;;;;;3.10;99.90;;;;;;5106852;28;20083;-68
2021/01/25 13:06:49;;;;;;;;;;;3.10;99.90;;;;;;5109908;28;19928;-68
2021/01/25 13:09:15;;;;;;;;;;;3.10;99.90;;;;;;5108887;28;19957;-68
2021/01/25 13:11:41;;;;;;;;;;;3.10;99.90;;;;;;5105992;28;19920;-68
2021/01/25 13:14:07;;;;;;;;;;;3.10;99.90;;;;;;5109737;28;19919;-68
2021/01/25 13:16:33;;;;;;;;;;;3.00;99.90;;;;;;5103006;28;19912;-69
2021/01/25 13:18:59;;;;;;;;;;;3.00;99.90;;;;;;5097610;28;19908;-68
2021/01/25 13:21:24;;;;;;;;;;;3.00;99.90;;;;;;5109434;28;19916;-68
2021/01/25 13:23:51;;;;;;;;;;;3.00;99.90;;;;;;5109220;28;19912;-68
2021/01/25 13:26:16;;;;;;;;;;;3.00;99.90;;;;;;5105241;28;19924;-66
2021/01/25 13:28:43;;;;;;;;;;;3.00;99.90;;;;;;5106554;28;20270;-66
2021/01/25 13:31:09;;;;;;;;;;;3.00;99.90;;;;;;5102211;28;19919;-68
2021/01/25 13:33:35;;;;;;;;;;;2.90;99.90;;;;;;5106920;28;20002;-68
2021/01/25 13:36:01;;;;;;;;;;;2.90;99.90;;;;;;5104599;28;19966;-68
2021/01/25 13:38:27;;;;;;;;;;;2.80;99.90;;;;;;5099764;28;19962;-69
2021/01/25 13:40:52;;;;;;;;;;;2.90;99.90;;;;;;5092509;28;19908;-69
2021/01/25 13:43:18;;;;;;;;;;;2.90;99.90;;;;;;5087905;28;19918;-69
2021/01/25 13:45:45;;;;;;;;;;;2.80;99.90;;;;;;5090773;28;20365;-69
2021/01/25 13:48:13;;;;;;;;;;;2.80;99.90;;;;;;5090915;28;20273;-69
2021/01/25 13:50:39;;;;;;;;;;;2.70;99.90;;;;;;5093048;28;20230;-68
2021/01/25 13:53:05;;;;;;;;;;;2.70;99.90;;;;;;5093000;28;19912;-69
2021/01/25 13:55:31;;;;;;;;;;;2.70;99.90;;;;;;5090903;28;19918;-69
2021/01/25 13:57:57;;;;;;;;;;;2.70;99.90;;;;;;5092297;28;20391;-69
2021/01/25 14:00:24;;;;;;;;;;;2.60;99.90;;;;;;5090850;28;19915;-67
2021/01/25 14:02:49;;;;;;;;;;;2.60;99.90;;;;;;5095110;28;19912;-66
2021/01/25 14:05:16;;;;;;;;;;;2.60;99.90;;;;;;5092133;28;19938;-66
2021/01/25 14:07:41;;;;;;;;;;;2.50;99.90;;;;;;5094887;28;19916;-66
2021/01/25 14:10:07;;;;;;;;;;;2.50;99.90;;;;;;5093696;28;19958;-66
2021/01/25 14:12:33;;;;;;;;;;;2.50;99.90;;;;;;5094671;28;20078;-65
2021/01/25 14:14:59;;;;;;;;;;;2.50;99.90;;;;;;5088935;28;19947;-67
2021/01/25 14:17:25;;;;;;;;;;;2.40;99.90;;;;;;5085051;28;20368;-66
2021/01/25 14:19:51;;;;;;;;;;;2.40;99.90;;;;;;5091453;28;19920;-66
2021/01/25 14:22:17;;;;;;;;;;;2.40;99.90;;;;;;5094760;28;19916;-67
2021/01/25 14:24:43;;;;;;;;;;;2.40;99.90;;;;;;5090180;28;19909;-67
2021/01/25 14:27:09;;;;;;;;;;;2.40;99.90;;;;;;5082107;28;20002;-67